Las Vegas Municipal Airport
KLVS : now visible

Airfield :











YOU CAN JOIN US ON...

 
LOGIN :

Register | Disclaimer

   EN    FR    IT 

 









Legend :    VFR   Marginal VFR   IFR   Intensive IFR   Very Intensive IFR
Visi :
Ceiling :
>= 8 km
>= 3000ft
5 to 8 km
1000 to 3000 ft
1500m to 5 km
500 to 1000 ft
800 to 1500m
200 to 500 ft
< 800m
< 200 ft
Symbols :   Thunderstorms  Fog  Heavy snow  Heavy precipitations  Wind > 20 kt






- Airport Elevation : 6877 ft


KLVS - Las Vegas Municipal

CURRENT METAR :
  • 100353Z AUTO 02008KT 10SM CLR 07/04 A3005 RMK AO2 SLP112 T00720039

EXPIRED METARs :
  • 100253Z AUTO 13010KT 10SM CLR 09/04 A3003 RMK AO2 SLP104 T00940044 53006
  • 100153Z AUTO 14009KT 10SM SCT100 10/05 A3002 RMK AO2 SLP102 T01000050
  • 100053Z AUTO 12012KT 10SM FEW110 11/06 A3001 RMK AO2 SLP107 T01110061

TAF KLVS
Valid from the 10 at 00:00 until the 11 at 00:00 UTC


092352Z 1000/1024 16013KT P6SM VCSH SCT070 BKN100
TEMPO 1000/1003 VRB20G35KT 6SM -SHRA SCT025 OVC040
FM100300 10011G19KT P6SM VCSH BKN040
FM100600 09008KT P6SM VCSH OVC030
FM100900 12009KT 4SM BR OVC015
FM101200 16010KT 2SM BR OVC006
FM101500 18012G20KT P6SM BKN025
FM101800 20017G27KT P6SM BKN040
KZAB FIR / North America



MET'MAP, your aeronautical weather chart ! - Copyright ORBIFLY December 2007 - Disclaimer

ORBIFLY MET'MAP TEAM :

Programming & Development : Alexandra Zaïnal
Concept & original design : Baudouin d'Aumeries
Assistance for programming : Marc-Olivier Méhu
Technical & hardware support : Manuel Goepfert

Contact : metmap@orbifly.com




SOURCES & CREDITS :

   NOAA       Earth
Advisory